Time;durP1;ratioP1;P1;durP2;ratioP2;P2;SDS_P1;SDS_P2;PMS_P1;PMS_P2;Temp;Humidity;BMP_temperature;BMP_pressure;BME280_temperature;BME280_humidity;BME280_pressure;Samples;Min_cycle;Max_cycle;Signal;HPM_P1;HPM_P2
2022/09/24 00:00:56;;;;;;;57.90;41.08;;;13.50;99.90;;;;;;5032039;28;20053;-84
2022/09/24 00:03:24;;;;;;;66.60;41.72;;;13.50;99.90;;;;;;5033115;28;20122;-85
2022/09/24 00:05:50;;;;;;;58.60;41.83;;;13.50;99.90;;;;;;5033142;28;20041;-84
2022/09/24 00:08:18;;;;;;;61.63;41.35;;;13.50;99.90;;;;;;5033375;28;20539;-84
2022/09/24 00:10:45;;;;;;;58.47;42.05;;;13.60;99.90;;;;;;5048592;28;20048;-84
2022/09/24 00:13:14;;;;;;;63.97;43.17;;;13.60;99.90;;;;;;5033411;28;20064;-84
2022/09/24 00:15:45;;;;;;;63.50;42.45;;;13.60;99.90;;;;;;5032644;28;20045;-84
2022/09/24 00:18:12;;;;;;;62.28;41.50;;;13.60;99.90;;;;;;5031165;28;20049;-84
2022/09/24 00:20:38;;;;;;;62.92;42.42;;;13.50;99.90;;;;;;5031744;28;20048;-84
2022/09/24 00:23:06;;;;;;;65.50;42.30;;;13.50;99.90;;;;;;5032122;28;20045;-84
2022/09/24 00:28:16;;;;;;;59.45;39.58;;;13.60;99.90;;;;;;5032314;28;20045;-84
2022/09/24 00:30:43;;;;;;;61.40;41.95;;;13.50;99.90;;;;;;5015010;28;20047;-84
2022/09/24 00:33:10;;;;;;;62.22;41.55;;;13.50;99.90;;;;;;5031855;28;20057;-84
2022/09/24 00:35:37;;;;;;;59.85;40.33;;;13.50;99.90;;;;;;5033092;28;20045;-86
2022/09/24 00:38:03;;;;;;;62.00;42.15;;;13.50;99.90;;;;;;5031706;28;20087;-84
2022/09/24 00:40:31;;;;;;;58.30;40.05;;;13.50;99.90;;;;;;5031590;28;20121;-84
2022/09/24 00:42:57;;;;;;;65.28;43.65;;;13.50;99.90;;;;;;5032926;28;20128;-84
2022/09/24 00:45:24;;;;;;;64.25;41.17;;;13.50;99.90;;;;;;5032436;28;20065;-84
2022/09/24 00:47:51;;;;;;;62.45;42.67;;;13.50;99.90;;;;;;5031450;28;20049;-84
2022/09/24 00:50:30;;;;;;;59.38;39.13;;;13.50;99.90;;;;;;5031226;28;20056;-84
2022/09/24 00:52:58;;;;;;;56.05;38.83;;;13.50;99.90;;;;;;5032654;28;20048;-84
2022/09/24 00:55:25;;;;;;;61.35;42.90;;;13.50;99.90;;;;;;5032608;28;20049;-84
2022/09/24 00:58:00;;;;;;;67.28;42.33;;;13.50;99.90;;;;;;5018311;28;20149;-84
2022/09/24 01:00:26;;;;;;;52.70;35.15;;;13.40;99.90;;;;;;5036109;28;20045;-84
2022/09/24 01:03:07;;;;;;;67.35;43.05;;;13.40;99.90;;;;;;5051735;28;20037;-84
2022/09/24 01:05:34;;;;;;;57.92;38.22;;;13.40;99.90;;;;;;5018690;28;20050;-84
2022/09/24 01:08:00;;;;;;;60.20;42.33;;;13.40;99.90;;;;;;5034969;28;20052;-85
2022/09/24 01:10:49;;;;;;;61.90;41.28;;;13.40;99.90;;;;;;5035866;28;20041;-84
2022/09/24 01:13:58;;;;;;;64.80;41.42;;;13.50;99.90;;;;;;5036180;28;20057;-84
2022/09/24 01:17:06;;;;;;;65.93;42.50;;;13.40;99.90;;;;;;5036029;28;20418;-86
2022/09/24 01:19:56;;;;;;;63.40;42.58;;;13.40;99.90;;;;;;5026582;28;20065;-84
2022/09/24 01:22:48;;;;;;;68.07;43.92;;;13.40;99.90;;;;;;5035708;28;20054;-84
2022/09/24 01:25:20;;;;;;;65.72;43.15;;;13.40;99.90;;;;;;5032217;28;20077;-84
2022/09/24 01:27:57;;;;;;;64.38;41.35;;;13.40;99.90;;;;;;5034684;28;20081;-84
2022/09/24 01:30:24;;;;;;;62.55;42.70;;;13.40;99.90;;;;;;5034564;28;20046;-84
2022/09/24 01:33:02;;;;;;;63.78;41.08;;;13.40;99.90;;;;;;5034888;28;20080;-84
2022/09/24 01:35:47;;;;;;;65.00;42.33;;;13.40;99.90;;;;;;5035325;28;20053;-85
2022/09/24 01:38:20;;;;;;;65.32;41.53;;;13.30;99.90;;;;;;5034989;28;20045;-84
2022/09/24 01:40:48;;;;;;;59.67;40.38;;;13.30;99.90;;;;;;5018247;28;20406;-83
2022/09/24 01:43:16;;;;;;;65.78;41.22;;;13.30;99.90;;;;;;5051556;28;20041;-84
2022/09/24 01:45:42;;;;;;;67.00;42.53;;;13.30;99.90;;;;;;5035131;28;20050;-84
2022/09/24 01:48:08;;;;;;;64.68;41.83;;;13.30;99.90;;;;;;5035321;28;20048;-84
2022/09/24 01:50:49;;;;;;;67.50;43.03;;;13.30;99.90;;;;;;5035680;28;20124;-84
2022/09/24 01:53:25;;;;;;;61.53;41.53;;;13.40;99.90;;;;;;5035659;28;20476;-84
2022/09/24 01:55:59;;;;;;;64.07;42.55;;;13.30;99.90;;;;;;5035041;28;20060;-84
2022/09/24 01:58:43;;;;;;;67.53;42.30;;;13.30;99.90;;;;;;5035571;28;20045;-84
2022/09/24 02:01:17;;;;;;;61.50;40.97;;;13.40;99.90;;;;;;5050799;28;20525;-84
2022/09/24 02:03:50;;;;;;;66.55;40.92;;;13.30;99.90;;;;;;5035463;28;20053;-84
2022/09/24 02:06:21;;;;;;;64.70;42.78;;;13.40;99.90;;;;;;5034950;28;20077;-84
2022/09/24 02:08:47;;;;;;;;;;;13.30;99.90;;;;;;5035808;28;20045;-84
2022/09/24 02:11:23;;;;;;;62.47;41.97;;;13.30;99.90;;;;;;5034324;28;19928;-84
2022/09/24 02:14:15;;;;;;;66.85;42.47;;;13.30;99.90;;;;;;5050313;28;20495;-84
2022/09/24 02:16:46;;;;;;;63.88;42.28;;;13.30;99.90;;;;;;5033983;28;20050;-84
2022/09/24 02:19:17;;;;;;;67.75;43.10;;;13.30;99.90;;;;;;5033492;28;20076;-84
2022/09/24 02:21:44;;;;;;;65.53;42.50;;;13.30;99.90;;;;;;5050465;28;20053;-84
2022/09/24 02:24:15;;;;;;;64.22;42.47;;;13.30;99.90;;;;;;5034798;28;20045;-84
2022/09/24 02:26:41;;;;;;;;;;;13.30;99.90;;;;;;5035063;28;20049;-84
2022/09/24 02:29:07;;;;;;;61.85;38.95;;;13.30;99.90;;;;;;5033694;28;19927;-84
2022/09/24 02:31:37;;;;;;;65.18;43.45;;;13.30;99.90;;;;;;5033480;28;20136;-84
2022/09/24 02:34:29;;;;;;;62.92;42.50;;;13.30;99.90;;;;;;4995672;28;20567;-84
2022/09/24 02:37:01;;;;;;;68.45;44.63;;;13.30;99.90;;;;;;5032817;28;20050;-84
2022/09/24 02:39:27;;;;;;;63.88;41.95;;;13.30;99.90;;;;;;5050207;28;20049;-84
2022/09/24 02:41:53;;;;;;;65.25;41.60;;;13.30;99.90;;;;;;5016529;28;20045;-84
2022/09/24 02:44:20;;;;;;;55.38;38.97;;;13.20;99.90;;;;;;5033822;28;20053;-84
2022/09/24 02:46:46;;;;;;;63.83;42.60;;;13.20;99.90;;;;;;5034602;28;20053;-84
2022/09/24 02:49:13;;;;;;;72.32;44.20;;;13.20;99.90;;;;;;5049473;28;20060;-84
2022/09/24 02:51:40;;;;;;;64.32;44.08;;;13.20;99.90;;;;;;5033305;28;20124;-84
2022/09/24 02:54:06;;;;;;;64.45;42.55;;;13.20;99.90;;;;;;5034157;28;20096;-84
2022/09/24 02:56:32;;;;;;;55.25;35.85;;;13.20;99.90;;;;;;5033979;28;20042;-84
2022/09/24 02:59:00;;;;;;;65.32;41.17;;;13.20;99.90;;;;;;5034168;28;20045;-84
2022/09/24 03:01:25;;;;;;;66.82;42.13;;;13.20;99.90;;;;;;5034218;28;20045;-84
2022/09/24 03:03:51;;;;;;;67.20;42.88;;;13.20;99.90;;;;;;5034475;28;20411;-84
2022/09/24 03:06:17;;;;;;;69.95;44.80;;;13.20;99.90;;;;;;5033421;28;20446;-84
2022/09/24 03:08:43;;;;;;;69.10;44.00;;;13.20;99.90;;;;;;5034012;28;20560;-84
2022/09/24 03:11:10;;;;;;;72.95;43.15;;;13.20;99.90;;;;;;5032810;28;20076;-86
2022/09/24 03:13:37;;;;;;;70.10;43.67;;;13.20;99.90;;;;;;5033142;28;20503;-84
2022/09/24 03:16:04;;;;;;;69.95;43.47;;;13.20;99.90;;;;;;5033825;28;20415;-84
2022/09/24 03:18:29;;;;;;;78.60;44.10;;;13.20;99.90;;;;;;5048616;28;20464;-84
2022/09/24 03:21:03;;;;;;;69.40;44.03;;;13.20;99.90;;;;;;5033574;28;20053;-84
2022/09/24 03:23:29;;;;;;;75.07;45.10;;;13.10;99.90;;;;;;5049072;28;20049;-84
2022/09/24 03:25:55;;;;;;;74.13;44.30;;;13.10;99.90;;;;;;5032323;28;20488;-84
2022/09/24 03:28:22;;;;;;;73.50;45.40;;;13.10;99.90;;;;;;5033830;28;20046;-84
2022/09/24 03:31:00;;;;;;;70.20;44.38;;;13.00;99.90;;;;;;5046851;28;20048;-84
2022/09/24 03:33:35;;;;;;;75.55;45.22;;;13.00;99.90;;;;;;5046443;28;20045;-84
2022/09/24 03:36:03;;;;;;;79.90;46.83;;;13.00;99.90;;;;;;5026255;28;20081;-84
2022/09/24 03:38:29;;;;;;;82.95;47.92;;;13.00;99.90;;;;;;5033184;28;20101;-84
2022/09/24 03:40:59;;;;;;;81.25;45.80;;;13.00;99.90;;;;;;5032363;28;20080;-84
2022/09/24 03:43:25;;;;;;;59.85;39.75;;;13.00;99.90;;;;;;5033538;28;20111;-84
2022/09/24 03:45:52;;;;;;;82.65;47.33;;;13.00;99.90;;;;;;5032846;28;20072;-84
2022/09/24 03:48:19;;;;;;;76.57;46.15;;;12.90;99.90;;;;;;5031892;28;20037;-84
2022/09/24 03:50:45;;;;;;;73.07;45.58;;;12.90;99.90;;;;;;5032190;28;20060;-85
2022/09/24 03:53:11;;;;;;;54.58;37.03;;;12.90;99.90;;;;;;5032375;28;20053;-84
2022/09/24 03:55:55;;;;;;;76.30;46.83;;;13.00;99.90;;;;;;5032274;28;20050;-85
2022/09/24 03:58:21;;;;;;;74.50;43.95;;;13.00;99.90;;;;;;5031949;28;20445;-84
2022/09/24 04:00:47;;;;;;;71.63;44.03;;;13.00;99.90;;;;;;5033042;28;20049;-84
2022/09/24 04:03:13;;;;;;;72.57;44.72;;;13.00;99.90;;;;;;5032340;28;20045;-84
2022/09/24 04:05:39;;;;;;;205.68;77.45;;;13.00;99.90;;;;;;5033034;28;20041;-84
2022/09/24 04:08:05;;;;;;;62.20;40.35;;;13.00;99.90;;;;;;5033765;28;20446;-84
2022/09/24 04:10:31;;;;;;;58.00;37.75;;;13.00;99.90;;;;;;5048854;28;20398;-84
2022/09/24 04:12:57;;;;;;;419.15;99.75;;;13.10;99.90;;;;;;5033125;28;20463;-84
2022/09/24 04:15:23;;;;;;;80.75;46.67;;;13.00;99.90;;;;;;5033291;28;20057;-85
2022/09/24 04:17:50;;;;;;;77.20;47.95;;;13.00;99.90;;;;;;5032240;28;20540;-85
2022/09/24 04:20:16;;;;;;;270.30;95.30;;;13.00;99.90;;;;;;5032475;28;20045;-84
2022/09/24 04:22:41;;;;;;;49.50;32.47;;;13.00;99.90;;;;;;5032520;28;20128;-84
2022/09/24 04:25:07;;;;;;;187.20;79.03;;;13.00;99.90;;;;;;5016209;28;20145;-84
2022/09/24 04:27:35;;;;;;;54.17;35.10;;;13.00;99.90;;;;;;5032754;28;20034;-84
2022/09/24 04:30:01;;;;;;;70.07;43.42;;;13.00;99.90;;;;;;5032915;28;20054;-84
2022/09/24 04:32:26;;;;;;;83.70;48.03;;;13.00;99.90;;;;;;5034433;28;20046;-85
2022/09/24 04:34:52;;;;;;;89.32;48.65;;;13.00;99.90;;;;;;5036705;28;20526;-85
2022/09/24 04:37:18;;;;;;;87.43;49.03;;;13.00;99.90;;;;;;5019328;28;20048;-84
2022/09/24 04:39:43;;;;;;;79.78;48.28;;;13.00;99.90;;;;;;5019730;28;20045;-84
2022/09/24 04:42:09;;;;;;;81.50;49.42;;;13.00;99.90;;;;;;5036295;28;20052;-85
2022/09/24 04:44:35;;;;;;;93.35;51.40;;;13.00;99.90;;;;;;5035412;28;20045;-84
2022/09/24 04:47:02;;;;;;;94.30;50.90;;;13.00;99.90;;;;;;5034826;28;20499;-86
2022/09/24 04:49:28;;;;;;;81.30;48.90;;;13.00;99.90;;;;;;5051978;28;20548;-84
2022/09/24 04:51:56;;;;;;;84.13;49.78;;;13.00;99.90;;;;;;5036798;28;20076;-84
2022/09/24 04:54:23;;;;;;;86.82;49.63;;;13.00;99.90;;;;;;5052469;28;20059;-84
2022/09/24 04:56:49;;;;;;;93.35;50.03;;;13.00;99.90;;;;;;5035323;28;20050;-84
2022/09/24 04:59:15;;;;;;;82.32;46.03;;;13.10;99.90;;;;;;5035380;28;20100;-84
2022/09/24 05:01:40;;;;;;;80.05;47.42;;;13.00;99.90;;;;;;5036359;28;20053;-85
2022/09/24 05:04:06;;;;;;;92.53;49.53;;;13.10;99.90;;;;;;5035745;28;20557;-84
2022/09/24 05:06:32;;;;;;;80.32;48.17;;;13.10;99.90;;;;;;5036406;28;20045;-84
2022/09/24 05:08:57;;;;;;;84.82;51.13;;;13.10;99.90;;;;;;5035551;28;20091;-84
2022/09/24 05:11:23;;;;;;;90.35;51.22;;;13.10;99.90;;;;;;5035255;28;20045;-84
2022/09/24 05:13:49;;;;;;;79.63;49.20;;;13.10;99.90;;;;;;5035844;28;20144;-84
2022/09/24 05:16:15;;;;;;;82.10;48.47;;;13.10;99.90;;;;;;5034748;28;20057;-85
2022/09/24 05:18:40;;;;;;;77.63;48.53;;;13.10;99.90;;;;;;5006580;28;20042;-84
2022/09/24 05:21:06;;;;;;;66.63;40.85;;;13.10;99.90;;;;;;5035313;28;20487;-84
2022/09/24 05:23:32;;;;;;;87.55;49.47;;;13.10;99.90;;;;;;5036006;28;20187;-84
2022/09/24 05:28:42;;;;;;;80.45;48.38;;;13.10;99.90;;;;;;5035424;28;20136;-84
2022/09/24 05:31:09;;;;;;;78.90;48.63;;;13.20;99.90;;;;;;5035581;28;20136;-84
2022/09/24 05:33:35;;;;;;;76.57;44.58;;;13.20;99.90;;;;;;5035405;28;20574;-84
2022/09/24 05:36:01;;;;;;;67.80;42.67;;;13.20;99.90;;;;;;5034118;28;20107;-84
2022/09/24 05:38:28;;;;;;;73.88;46.20;;;13.20;99.90;;;;;;5035552;28;20395;-84
2022/09/24 05:40:54;;;;;;;53.30;36.40;;;13.20;99.90;;;;;;5035656;28;20052;-84
2022/09/24 05:43:20;;;;;;;70.63;43.13;;;13.20;99.90;;;;;;5033840;28;20398;-85
2022/09/24 05:45:49;;;;;;;71.25;43.20;;;13.20;99.90;;;;;;5035574;28;20060;-84
2022/09/24 05:48:15;;;;;;;77.68;46.08;;;13.20;99.90;;;;;;5035694;28;20042;-84
2022/09/24 05:50:41;;;;;;;68.13;43.83;;;13.20;99.90;;;;;;5051084;28;20045;-84
2022/09/24 05:53:07;;;;;;;69.70;44.13;;;13.30;99.90;;;;;;5035771;28;20053;-84
2022/09/24 05:55:33;;;;;;;74.32;43.30;;;13.30;99.90;;;;;;5033489;28;20408;-84
2022/09/24 05:58:03;;;;;;;72.18;42.97;;;13.30;99.90;;;;;;5034213;28;20042;-84
2022/09/24 06:00:29;;;;;;;45.33;31.25;;;13.30;99.90;;;;;;5035355;28;20376;-84
2022/09/24 06:03:01;;;;;;;65.10;41.33;;;13.30;99.90;;;;;;5013088;28;20107;-83
2022/09/24 06:05:27;;;;;;;68.22;41.00;;;13.30;99.90;;;;;;5034498;28;20045;-84
2022/09/24 06:07:54;;;;;;;56.25;36.47;;;13.30;99.90;;;;;;5026098;28;20117;-83
2022/09/24 06:10:20;;;;;;;59.30;38.58;;;13.30;99.90;;;;;;5031185;28;20057;-83
2022/09/24 06:12:45;;;;;;;63.70;41.17;;;13.30;99.90;;;;;;5030511;28;20046;-83
2022/09/24 06:15:12;;;;;;;60.95;40.63;;;13.30;99.90;;;;;;5017694;28;20388;-84
2022/09/24 06:17:38;;;;;;;60.95;39.90;;;13.40;99.90;;;;;;5043997;28;20042;-85
2022/09/24 06:20:04;;;;;;;62.78;40.17;;;13.40;99.90;;;;;;5033324;28;20045;-84
2022/09/24 06:22:30;;;;;;;67.50;38.45;;;13.40;99.90;;;;;;5033066;28;20095;-84
2022/09/24 06:24:56;;;;;;;63.63;39.78;;;13.40;99.90;;;;;;5034381;28;20045;-84
2022/09/24 06:27:22;;;;;;;61.15;38.42;;;13.40;99.90;;;;;;5033342;28;20509;-84
2022/09/24 06:29:47;;;;;;;57.08;36.63;;;13.40;99.90;;;;;;5034701;28;20078;-84
2022/09/24 06:32:13;;;;;;;63.22;38.83;;;13.50;99.90;;;;;;5033191;28;20049;-84
2022/09/24 06:34:38;;;;;;;62.67;37.63;;;13.50;99.90;;;;;;5033501;28;20045;-84
2022/09/24 06:37:04;;;;;;;62.40;38.85;;;13.50;99.90;;;;;;5033441;28;20056;-83
2022/09/24 06:39:30;;;;;;;58.90;37.10;;;13.50;99.90;;;;;;5016680;28;20574;-84
2022/09/24 06:41:56;;;;;;;57.75;37.83;;;13.50;99.90;;;;;;5032234;28;20099;-84
2022/09/24 06:44:22;;;;;;;32.95;24.27;;;13.50;99.90;;;;;;5033983;28;20053;-84
2022/09/24 06:46:48;;;;;;;49.50;33.08;;;13.50;99.90;;;;;;5033886;28;20045;-82
2022/09/24 06:49:14;;;;;;;80.68;39.88;;;13.50;99.90;;;;;;5033149;28;20551;-83
2022/09/24 06:51:39;;;;;;;94.50;39.47;;;13.50;99.90;;;;;;5033295;28;20053;-83
2022/09/24 06:54:05;;;;;;;90.95;41.10;;;13.50;99.90;;;;;;5031057;28;20051;-84
2022/09/24 06:56:31;;;;;;;147.30;41.50;;;13.40;99.90;;;;;;5031550;28;20050;-83
2022/09/24 06:58:56;;;;;;;159.18;42.35;;;13.40;99.90;;;;;;5033534;28;20045;-83
2022/09/24 07:01:22;;;;;;;115.18;38.40;;;13.40;99.90;;;;;;5033769;28;20064;-83
2022/09/24 07:03:48;;;;;;;123.10;39.38;;;13.40;99.90;;;;;;5031936;28;20041;-82
2022/09/24 07:06:14;;;;;;;71.05;29.75;;;13.40;99.90;;;;;;5032566;28;20399;-84
2022/09/24 07:08:40;;;;;;;124.50;43.28;;;13.30;99.90;;;;;;5033149;28;20084;-82
2022/09/24 07:11:06;;;;;;;221.65;47.30;;;13.30;99.90;;;;;;5015555;28;20459;-82
2022/09/24 07:13:32;;;;;;;114.88;37.13;;;13.20;99.90;;;;;;5033046;28;20469;-81
2022/09/24 07:16:00;;;;;;;202.98;44.92;;;13.20;99.90;;;;;;5032797;28;20045;-82
2022/09/24 07:18:25;;;;;;;134.57;38.42;;;13.20;99.90;;;;;;5031875;28;20376;-81
2022/09/24 07:20:55;;;;;;;172.82;47.58;;;13.20;99.90;;;;;;5015701;28;20071;-81
2022/09/24 07:23:21;;;;;;;234.93;50.20;;;13.20;99.90;;;;;;5032616;28;20132;-81
2022/09/24 07:25:48;;;;;;;113.78;40.92;;;13.20;99.90;;;;;;5033682;28;20051;-81
2022/09/24 07:28:15;;;;;;;244.98;50.08;;;13.20;99.90;;;;;;5034186;28;20410;-81
2022/09/24 07:30:41;;;;;;;315.63;55.10;;;13.20;99.90;;;;;;5049472;28;20502;-81
2022/09/24 07:33:07;;;;;;;342.95;56.90;;;13.20;99.90;;;;;;5032645;28;20088;-81
2022/09/24 07:35:36;;;;;;;208.80;48.20;;;13.10;99.90;;;;;;5032436;28;20443;-81
2022/09/24 07:38:04;;;;;;;218.98;45.65;;;13.20;99.90;;;;;;5032317;28;20045;-80
2022/09/24 07:40:31;;;;;;;155.57;34.08;;;13.10;99.90;;;;;;5032333;28;20184;-81
2022/09/24 07:42:57;;;;;;;17.10;8.85;;;13.10;99.90;;;;;;5032604;28;20046;-80
2022/09/24 07:45:26;;;;;;;36.15;12.50;;;13.10;99.90;;;;;;5033704;28;20049;-81
2022/09/24 07:48:00;;;;;;;48.00;15.63;;;13.10;99.90;;;;;;5032092;28;20049;-80
2022/09/24 07:50:27;;;;;;;72.57;19.33;;;13.20;99.90;;;;;;5033499;28;20037;-81
2022/09/24 07:52:54;;;;;;;124.05;22.67;;;13.20;99.90;;;;;;5032122;28;20046;-81
2022/09/24 07:55:20;;;;;;;121.30;23.75;;;13.30;99.90;;;;;;5033643;28;20048;-81
2022/09/24 07:57:50;;;;;;;129.52;23.83;;;13.30;99.90;;;;;;5016256;28;20048;-81
2022/09/24 08:00:17;;;;;;;97.43;22.90;;;13.30;99.90;;;;;;5033657;28;20049;-81
2022/09/24 08:02:44;;;;;;;186.07;27.15;;;13.50;99.90;;;;;;5032186;28;20518;-81
2022/09/24 08:05:10;;;;;;;59.85;19.95;;;13.50;99.90;;;;;;5015838;28;20060;-81
2022/09/24 08:07:36;;;;;;;64.68;19.52;;;13.60;99.90;;;;;;5032310;28;20041;-82
2022/09/24 08:10:02;;;;;;;87.85;21.65;;;13.70;99.90;;;;;;5032796;28;20564;-81
2022/09/24 08:12:28;;;;;;;78.47;21.58;;;13.70;99.90;;;;;;5033438;28;20038;-81
2022/09/24 08:14:54;;;;;;;111.65;22.02;;;13.80;99.90;;;;;;5032504;28;20049;-81
2022/09/24 08:17:20;;;;;;;77.18;20.10;;;13.80;99.90;;;;;;5033556;28;20045;-82
2022/09/24 08:19:46;;;;;;;44.45;17.15;;;13.90;99.90;;;;;;5032562;28;20085;-81
2022/09/24 08:22:13;;;;;;;112.70;21.25;;;13.90;99.90;;;;;;5033442;28;20053;-82
2022/09/24 08:24:40;;;;;;;35.85;14.90;;;13.90;99.90;;;;;;5033512;28;20048;-82
2022/09/24 08:27:06;;;;;;;42.40;14.90;;;14.00;99.90;;;;;;5049517;28;20483;-81
2022/09/24 08:29:32;;;;;;;42.10;15.35;;;14.00;99.90;;;;;;5033616;28;20041;-81
2022/09/24 08:31:58;;;;;;;59.92;16.77;;;14.00;99.90;;;;;;5029490;28;20064;-82
2022/09/24 08:34:24;;;;;;;40.03;15.23;;;14.00;99.90;;;;;;5027273;28;20054;-81
2022/09/24 08:36:49;;;;;;;65.25;17.30;;;13.90;99.90;;;;;;5031964;28;20053;-81
2022/09/24 08:39:15;;;;;;;79.40;19.45;;;14.00;99.90;;;;;;5027666;28;20073;-82
2022/09/24 08:41:50;;;;;;;48.20;16.25;;;14.00;99.90;;;;;;5015211;28;20089;-82
2022/09/24 08:47:28;;;;;;;54.45;16.60;;;14.10;99.90;;;;;;5033008;28;20518;-81
2022/09/24 08:50:22;;;;;;;66.15;16.95;;;14.10;99.90;;;;;;5032289;28;20048;-82
2022/09/24 08:52:59;;;;;;;23.42;12.15;;;14.10;99.90;;;;;;5031501;28;20097;-82
2022/09/24 08:55:39;;;;;;;31.25;11.13;;;14.10;99.90;;;;;;5031879;28;20506;-83
2022/09/24 08:58:45;;;;;;;50.90;14.40;;;14.20;99.90;;;;;;5032268;28;20041;-82
2022/09/24 09:01:11;;;;;;;55.17;14.48;;;14.10;99.90;;;;;;5033008;28;20049;-82
2022/09/24 09:03:49;;;;;;;55.30;14.02;;;14.20;99.90;;;;;;5033054;28;20506;-82
2022/09/24 09:06:33;;;;;;;41.15;12.18;;;14.20;99.90;;;;;;5033228;28;20132;-82
2022/09/24 09:09:05;;;;;;;39.45;11.52;;;14.20;99.90;;;;;;5033454;28;20052;-83
2022/09/24 09:11:32;;;;;;;35.13;12.80;;;14.20;99.90;;;;;;5032898;28;20141;-83
2022/09/24 09:14:07;;;;;;;23.25;9.70;;;14.20;99.90;;;;;;5030178;28;20058;-84
2022/09/24 09:16:47;;;;;;;44.28;11.10;;;14.30;99.90;;;;;;5030086;28;20402;-82
2022/09/24 09:19:16;;;;;;;31.83;10.82;;;14.30;99.90;;;;;;4996061;28;20575;-83
2022/09/24 09:21:45;;;;;;;19.70;8.20;;;14.30;99.90;;;;;;5046626;28;20057;-83
2022/09/24 09:24:17;;;;;;;20.48;5.38;;;14.30;99.90;;;;;;5031231;28;20056;-84
2022/09/24 09:26:48;;;;;;;19.92;4.05;;;14.20;99.90;;;;;;5034919;28;20124;-86
2022/09/24 09:29:15;;;;;;;18.42;5.53;;;14.20;99.90;;;;;;5033656;28;20526;-83
2022/09/24 09:32:10;;;;;;;20.90;3.58;;;14.10;99.90;;;;;;5034836;28;20077;-86
2022/09/24 09:35:04;;;;;;;18.63;3.75;;;14.10;99.90;;;;;;5033844;28;20503;-85
2022/09/24 09:37:43;;;;;;;21.50;3.80;;;14.00;99.90;;;;;;5031795;28;20069;-83
2022/09/24 09:40:26;;;;;;;22.67;3.95;;;14.00;99.90;;;;;;5034070;28;20045;-86
2022/09/24 09:42:58;;;;;;;17.10;3.70;;;14.00;99.90;;;;;;5030967;28;20041;-84
2022/09/24 09:45:31;;;;;;;17.42;3.58;;;14.00;99.90;;;;;;5034381;28;20048;-86
2022/09/24 09:47:58;;;;;;;14.10;3.45;;;14.00;99.90;;;;;;5033339;28;20391;-84
2022/09/24 09:50:47;;;;;;;16.25;2.75;;;13.90;99.90;;;;;;5017069;28;20045;-84
2022/09/24 09:53:30;;;;;;;10.48;2.55;;;13.90;99.90;;;;;;5029245;28;20048;-86
2022/09/24 09:56:14;;;;;;;17.15;2.70;;;14.00;99.90;;;;;;5028498;28;20085;-84
2022/09/24 09:58:46;;;;;;;11.57;1.98;;;13.90;99.90;;;;;;5033070;28;20121;-83
2022/09/24 10:01:16;;;;;;;10.13;2.28;;;14.00;99.90;;;;;;5034293;28;20060;-84
2022/09/24 10:03:51;;;;;;;11.85;2.03;;;13.90;99.90;;;;;;5034036;28;20126;-84
2022/09/24 10:06:28;;;;;;;12.50;2.75;;;14.00;99.90;;;;;;5033887;28;20068;-84
2022/09/24 10:09:10;;;;;;;10.00;2.70;;;14.10;99.90;;;;;;5033589;28;20037;-85
2022/09/24 10:11:36;;;;;;;11.35;1.88;;;14.20;99.90;;;;;;5020211;28;20041;-84
2022/09/24 10:14:10;;;;;;;11.57;2.33;;;14.30;99.90;;;;;;5033414;28;20346;-84
2022/09/24 10:16:46;;;;;;;12.85;2.33;;;14.40;99.90;;;;;;5033859;28;20042;-86
2022/09/24 10:19:21;;;;;;;10.43;2.30;;;14.60;99.90;;;;;;5029174;28;20124;-84
2022/09/24 10:21:48;;;;;;;7.78;1.60;;;14.70;99.90;;;;;;5032212;28;20076;-85
2022/09/24 10:24:20;;;;;;;15.88;2.28;;;14.70;99.90;;;;;;5032219;28;20050;-85
2022/09/24 10:26:47;;;;;;;11.60;2.00;;;14.60;99.90;;;;;;5032657;28;20042;-90
2022/09/24 10:32:17;;;;;;;18.05;2.75;;;14.50;99.90;;;;;;5013976;28;20058;-86
2022/09/24 10:34:57;;;;;;;16.17;2.17;;;14.40;99.90;;;;;;5030380;28;20088;-86
2022/09/24 10:37:23;;;;;;;21.60;2.50;;;14.30;99.90;;;;;;5030214;28;20120;-86
2022/09/24 10:40:12;;;;;;;16.67;2.63;;;14.30;99.90;;;;;;5014815;28;20054;-88
2022/09/24 10:42:37;;;;;;;17.50;2.53;;;14.20;99.90;;;;;;5014936;28;20065;-86
2022/09/24 10:45:11;;;;;;;22.20;2.72;;;14.20;99.90;;;;;;5014779;28;20049;-86
2022/09/24 10:48:12;;;;;;;14.13;2.38;;;14.10;99.90;;;;;;5014673;28;20439;-86
2022/09/24 10:50:58;;;;;;;14.48;2.30;;;14.10;99.90;;;;;;5014703;28;20053;-87
2022/09/24 10:53:33;;;;;;;12.35;2.20;;;14.20;99.90;;;;;;5014764;28;20423;-89
2022/09/24 10:56:22;;;;;;;14.77;2.42;;;14.30;99.90;;;;;;5014644;28;20128;-86
2022/09/24 10:59:13;;;;;;;17.10;2.13;;;14.40;99.90;;;;;;5013403;28;20046;-87
2022/09/24 11:02:08;;;;;;;11.82;1.85;;;14.50;99.90;;;;;;5030794;28;20049;-87
2022/09/24 11:04:49;;;;;;;14.45;1.92;;;14.50;99.90;;;;;;5015471;28;20064;-87
2022/09/24 11:07:33;;;;;;;12.57;1.85;;;14.40;99.90;;;;;;5014431;28;20125;-87
2022/09/24 11:10:02;;;;;;;13.75;2.15;;;14.40;99.90;;;;;;5013966;28;20050;-90
2022/09/24 11:12:43;;;;;;;17.02;2.10;;;14.40;99.90;;;;;;5032448;28;20053;-89
2022/09/24 11:15:24;;;;;;;11.02;1.90;;;14.40;99.90;;;;;;5048606;28;20053;-89
2022/09/24 11:18:13;;;;;;;13.57;1.83;;;14.40;99.90;;;;;;5033769;28;20049;-90
2022/09/24 11:20:49;;;;;;;17.35;2.00;;;14.30;99.90;;;;;;5031048;28;20399;-88
2022/09/24 11:23:20;;;;;;;11.65;1.48;;;14.30;99.90;;;;;;5032497;28;20128;-93
2022/09/24 11:26:14;;;;;;;9.70;1.58;;;14.30;99.90;;;;;;5031725;28;20092;-89
2022/09/24 11:29:10;;;;;;;10.43;1.73;;;14.30;99.90;;;;;;5032945;28;20049;-94
2022/09/24 11:31:45;;;;;;;11.93;1.95;;;14.30;99.90;;;;;;5031487;28;20477;-90
2022/09/24 11:34:52;;;;;;;13.43;2.17;;;14.30;99.90;;;;;;5036598;28;20057;-92
2022/09/24 11:37:38;;;;;;;10.13;1.70;;;14.40;99.90;;;;;;5061666;28;20171;-92
2022/09/24 11:40:50;;;;;;;6.05;1.55;;;14.40;99.90;;;;;;5057085;28;20058;-91
2022/09/24 11:43:41;;;;;;;9.43;1.58;;;14.50;99.90;;;;;;5029624;28;20092;-90
2022/09/24 11:46:08;;;;;;;;;;;14.50;99.90;;;;;;5046237;28;20045;-90
2022/09/24 11:48:59;;;;;;;5.60;1.08;;;14.50;99.90;;;;;;5031863;28;19921;-88
2022/09/24 11:52:04;;;;;;;4.82;1.02;;;14.50;99.90;;;;;;5032341;28;20127;-90
2022/09/24 11:54:30;;;;;;;6.10;0.80;;;14.40;99.90;;;;;;5030736;28;20049;-88
2022/09/24 11:57:07;;;;;;;3.30;0.80;;;14.40;99.90;;;;;;5031299;28;20042;-89
2022/09/24 11:59:54;;;;;;;3.72;1.00;;;14.30;99.90;;;;;;5032898;28;20048;-94
2022/09/24 12:02:53;;;;;;;4.55;1.00;;;14.30;99.90;;;;;;5034094;28;20045;-94
2022/09/24 12:05:34;;;;;;;2.70;0.90;;;14.20;99.90;;;;;;5031684;28;20061;-88
2022/09/24 12:08:08;;;;;;;3.93;0.80;;;14.40;99.90;;;;;;5050338;28;20041;-89
2022/09/24 12:10:48;;;;;;;2.80;0.90;;;14.50;99.90;;;;;;5032898;28;20057;-89
2022/09/24 12:13:26;;;;;;;3.70;0.73;;;14.70;99.90;;;;;;5033024;28;20049;-90
2022/09/24 12:16:01;;;;;;;5.03;0.98;;;14.80;99.90;;;;;;5037467;28;20064;-89
2022/09/24 12:18:50;;;;;;;4.68;0.68;;;15.00;99.90;;;;;;5045767;28;20045;-90
2022/09/24 12:21:46;;;;;;;7.22;0.88;;;15.10;99.90;;;;;;5045584;28;20054;-91
2022/09/24 12:24:21;;;;;;;5.43;0.98;;;15.10;99.90;;;;;;5033408;28;20053;-88
2022/09/24 12:26:48;;;;;;;7.75;1.08;;;15.00;99.90;;;;;;5034899;28;20491;-89
2022/09/24 12:32:53;;;;;;;6.55;0.90;;;15.00;99.90;;;;;;5032067;28;20103;-89
2022/09/24 12:35:47;;;;;;;2.17;0.60;;;15.00;99.90;;;;;;5032654;28;20120;-94
2022/09/24 12:38:31;;;;;;;4.88;0.82;;;15.00;99.90;;;;;;5033983;28;20127;-88
2022/09/24 12:41:18;;;;;;;4.75;0.70;;;15.00;99.90;;;;;;5033395;28;20098;-88
2022/09/24 12:43:53;;;;;;;3.15;0.77;;;15.10;99.90;;;;;;5032015;28;20096;-88
2022/09/24 12:46:23;;;;;;;5.93;0.80;;;15.10;99.90;;;;;;4993795;28;20042;-88
2022/09/24 12:48:50;;;;;;;2.83;0.60;;;15.10;99.90;;;;;;5021254;28;20066;-90
2022/09/24 12:51:21;;;;;;;4.53;0.85;;;15.00;99.90;;;;;;5012289;28;20100;-92
2022/09/24 12:54:04;;;;;;;;;;;15.00;99.90;;;;;;5015966;28;20056;-87
2022/09/24 12:56:30;;;;;;;3.83;0.75;;;15.00;99.90;;;;;;5018254;28;19968;-86
2022/09/24 12:59:01;;;;;;;2.80;0.80;;;15.00;99.90;;;;;;5017045;28;20042;-89
2022/09/24 13:01:30;;;;;;;2.80;0.55;;;15.00;99.90;;;;;;5016141;28;20060;-87
2022/09/24 13:04:14;;;;;;;5.85;0.80;;;15.00;99.90;;;;;;5017753;28;20060;-86
2022/09/24 13:06:43;;;;;;;3.20;0.68;;;15.00;99.90;;;;;;5016042;28;20056;-87
2022/09/24 13:09:35;;;;;;;3.47;0.68;;;14.90;99.90;;;;;;5016658;28;20050;-86